createdAt,value
2023-03-13T00:01:50.551Z,37.23
2023-03-13T00:04:20.421Z,23.03
2023-03-13T00:06:50.222Z,28.87
2023-03-13T00:09:20.105Z,39.03
2023-03-13T00:11:50.210Z,26.87
2023-03-13T00:14:19.980Z,29.90
2023-03-13T00:16:49.837Z,20.47
2023-03-13T00:19:19.599Z,30.93
2023-03-13T00:21:49.391Z,22.53
2023-03-13T00:24:19.042Z,26.90
2023-03-13T00:26:48.840Z,31.53
2023-03-13T00:29:19.236Z,28.12
2023-03-13T00:31:49.170Z,17.37
2023-03-13T00:34:19.358Z,22.52
2023-03-13T00:36:49.131Z,28.03
2023-03-13T00:39:18.759Z,30.25
2023-03-13T00:41:48.706Z,28.70
2023-03-13T00:44:18.458Z,22.55
2023-03-13T00:46:49.908Z,20.43
2023-03-13T00:49:19.991Z,26.60
2023-03-13T00:51:49.853Z,22.73
2023-03-13T00:54:19.838Z,31.83
2023-03-13T00:56:49.826Z,25.60
2023-03-13T00:59:19.953Z,29.02
2023-03-13T01:01:49.925Z,31.23
2023-03-13T01:04:19.724Z,23.25
2023-03-13T01:06:49.476Z,27.47
2023-03-13T01:09:19.868Z,24.00
2023-03-13T01:11:49.773Z,29.93
2023-03-13T01:14:21.144Z,22.80
2023-03-13T01:16:50.932Z,22.40
2023-03-13T01:19:20.713Z,20.97
2023-03-13T01:21:50.473Z,30.93
2023-03-13T01:24:20.477Z,22.58
2023-03-13T01:26:50.602Z,22.53
2023-03-13T01:29:20.671Z,25.97
2023-03-13T01:31:50.170Z,31.45
2023-03-13T01:34:20.284Z,25.35
2023-03-13T01:36:51.703Z,24.90
2023-03-13T01:39:21.759Z,25.52
2023-03-13T01:41:51.582Z,21.00
2023-03-13T01:44:27.382Z,33.08
2023-03-13T01:46:57.958Z,24.95
2023-03-13T01:49:34.558Z,21.35
2023-03-13T01:52:09.138Z,18.70
2023-03-13T01:54:52.841Z,20.25
2023-03-13T01:57:32.294Z,20.37
2023-03-13T02:00:05.239Z,27.43
2023-03-13T02:02:39.012Z,17.20
2023-03-13T02:05:09.081Z,18.00
2023-03-13T02:07:41.894Z,13.10
2023-03-13T02:10:14.082Z,19.57
2023-03-13T02:12:44.499Z,21.35
2023-03-13T02:15:22.876Z,17.32
2023-03-13T02:17:55.031Z,18.40
2023-03-13T02:20:26.358Z,19.47
2023-03-13T02:23:24.808Z,21.30
2023-03-13T02:25:55.396Z,17.33
2023-03-13T02:28:29.670Z,23.25
2023-03-13T02:30:59.816Z,17.30
2023-03-13T02:33:32.277Z,17.23
2023-03-13T02:36:03.545Z,18.57
2023-03-13T02:38:36.347Z,17.87
2023-03-13T02:41:06.950Z,19.40
2023-03-13T02:43:39.295Z,17.32
2023-03-13T02:46:17.659Z,15.95
2023-03-13T02:48:54.939Z,14.07
2023-03-13T02:51:34.023Z,19.27
2023-03-13T02:54:13.442Z,12.07
2023-03-13T02:56:46.422Z,18.03
2023-03-13T02:59:17.213Z,14.05
2023-03-13T03:01:47.815Z,18.27
2023-03-13T03:04:17.553Z,17.85
2023-03-13T03:06:47.421Z,15.00
2023-03-13T03:09:17.267Z,22.13
2023-03-13T03:11:47.450Z,13.33
2023-03-13T03:14:18.921Z,9.00
2023-03-13T03:16:49.429Z,11.93
2023-03-13T03:19:19.214Z,17.63
2023-03-13T03:21:49.589Z,15.70
2023-03-13T03:24:20.739Z,11.00
2023-03-13T03:26:50.510Z,13.73
2023-03-13T03:29:21.990Z,15.13
2023-03-13T03:31:53.370Z,16.03
2023-03-13T03:34:24.042Z,20.57
2023-03-13T03:36:54.438Z,13.50
2023-03-13T03:39:24.577Z,10.60
2023-03-13T03:41:55.322Z,12.37
2023-03-13T03:44:25.512Z,10.95
2023-03-13T03:46:57.002Z,14.43
2023-03-13T03:49:27.897Z,12.27
2023-03-13T03:51:57.752Z,13.83
2023-03-13T03:54:29.635Z,14.03
2023-03-13T03:56:59.608Z,15.10
2023-03-13T03:59:29.934Z,9.68
2023-03-13T04:02:01.565Z,15.50
2023-03-13T04:04:32.878Z,9.83
2023-03-13T04:07:13.072Z,12.23
2023-03-13T04:09:43.228Z,10.78
2023-03-13T04:12:14.702Z,11.77
2023-03-13T04:14:46.511Z,12.60
2023-03-13T04:17:17.469Z,15.20
2023-03-13T04:19:48.652Z,14.30
2023-03-13T04:22:18.576Z,10.73
2023-03-13T04:24:50.331Z,11.17
2023-03-13T04:27:21.098Z,10.10
2023-03-13T04:29:52.162Z,9.63
2023-03-13T04:32:23.730Z,13.37
2023-03-13T04:35:08.588Z,11.17
2023-03-13T04:37:49.602Z,11.38
2023-03-13T04:40:23.717Z,12.10
2023-03-13T04:43:04.353Z,10.45
2023-03-13T04:45:35.976Z,16.33
2023-03-13T04:48:07.741Z,13.93
2023-03-13T04:50:44.685Z,11.93
2023-03-13T04:53:19.222Z,14.35
2023-03-13T04:55:51.830Z,17.37
2023-03-13T04:58:40.007Z,11.97
2023-03-13T05:01:17.339Z,15.50
2023-03-13T05:03:55.112Z,14.50
2023-03-13T05:06:29.158Z,13.90
2023-03-13T05:09:00.930Z,14.03
2023-03-13T05:11:42.281Z,15.97
2023-03-13T05:14:22.407Z,12.43
2023-03-13T05:17:10.822Z,14.97
2023-03-13T05:19:51.144Z,13.73
2023-03-13T05:22:40.652Z,11.85
2023-03-13T05:25:27.831Z,13.60
2023-03-13T05:27:59.693Z,12.93
2023-03-13T05:33:21.065Z,11.57
2023-03-13T05:36:01.094Z,10.20
2023-03-13T05:38:35.651Z,9.33
2023-03-13T05:41:19.142Z,8.30
2023-03-13T05:43:56.612Z,12.03
2023-03-13T05:46:37.186Z,9.73
2023-03-13T05:49:24.385Z,11.07
2023-03-13T05:52:05.084Z,7.63
2023-03-13T05:54:36.551Z,12.90
2023-03-13T05:57:26.561Z,7.73
2023-03-13T05:59:58.068Z,10.83
2023-03-13T06:02:47.408Z,10.53
2023-03-13T06:05:19.183Z,10.60
2023-03-13T06:07:51.554Z,12.70
2023-03-13T06:10:22.142Z,7.12
2023-03-13T06:12:57.974Z,9.08
2023-03-13T06:15:30.694Z,9.18
2023-03-13T06:18:10.620Z,7.78
2023-03-13T06:20:42.543Z,9.90
2023-03-13T06:23:12.301Z,5.00
2023-03-13T06:25:42.133Z,7.87
2023-03-13T06:28:12.229Z,9.50
2023-03-13T06:30:42.037Z,9.47
2023-03-13T06:33:12.746Z,7.90
2023-03-13T06:35:55.753Z,8.40
2023-03-13T06:38:15.497Z,8.30
2023-03-13T06:40:46.990Z,12.10
2023-03-13T06:43:17.163Z,10.68
2023-03-13T06:45:47.058Z,6.57
2023-03-13T06:48:19.120Z,9.08
2023-03-13T06:50:48.927Z,9.40
2023-03-13T06:53:21.559Z,12.47
2023-03-13T06:55:51.370Z,6.50
2023-03-13T06:58:32.125Z,12.58
2023-03-13T07:00:53.063Z,12.47
2023-03-13T07:03:23.421Z,9.88
2023-03-13T07:05:59.836Z,9.80
2023-03-13T07:08:29.979Z,8.18
2023-03-13T07:11:03.002Z,10.33
2023-03-13T07:13:33.249Z,10.33
2023-03-13T07:16:08.883Z,11.13
2023-03-13T07:18:42.147Z,4.53
2023-03-13T07:21:12.797Z,10.60
2023-03-13T07:23:42.665Z,7.20
2023-03-13T07:26:15.968Z,9.77
2023-03-13T07:28:46.149Z,6.03
2023-03-13T07:31:21.519Z,7.20
2023-03-13T07:33:55.978Z,10.60
2023-03-13T07:36:26.004Z,8.40
2023-03-13T07:38:55.743Z,12.05
2023-03-13T07:41:28.706Z,12.23
2023-03-13T07:43:58.468Z,10.23
2023-03-13T07:46:28.028Z,8.43
2023-03-13T07:48:58.225Z,9.43
2023-03-13T07:51:42.421Z,7.93
2023-03-13T07:54:00.210Z,10.17
2023-03-13T07:56:30.061Z,11.25
2023-03-13T07:58:59.824Z,3.97
2023-03-13T08:01:31.118Z,9.20
2023-03-13T08:04:05.585Z,11.00
2023-03-13T08:06:39.826Z,7.28
2023-03-13T08:09:11.331Z,6.10
2023-03-13T08:11:42.428Z,7.17
2023-03-13T08:14:14.324Z,4.53
2023-03-13T08:16:44.237Z,9.37
2023-03-13T08:19:14.005Z,10.87
2023-03-13T08:21:43.869Z,5.33
2023-03-13T08:24:15.235Z,8.78
2023-03-13T08:26:45.129Z,10.07
2023-03-13T08:29:16.237Z,5.80
2023-03-13T08:31:48.990Z,8.10
2023-03-13T08:34:20.726Z,8.30
2023-03-13T08:36:52.712Z,6.90
2023-03-13T08:39:22.729Z,11.30
2023-03-13T08:41:52.561Z,8.37
2023-03-13T08:44:22.089Z,5.33
2023-03-13T08:46:52.328Z,8.63
2023-03-13T08:49:22.141Z,6.80
2023-03-13T08:51:51.964Z,9.10
2023-03-13T08:54:21.815Z,5.72
2023-03-13T08:56:51.671Z,8.63
2023-03-13T08:59:21.423Z,8.67
2023-03-13T09:01:51.205Z,11.07
2023-03-13T09:04:21.403Z,9.14
2023-03-13T09:06:51.589Z,8.15
2023-03-13T09:09:22.827Z,10.93
2023-03-13T09:11:52.973Z,7.50
2023-03-13T09:14:22.627Z,8.05
2023-03-13T09:16:52.382Z,6.57
2023-03-13T09:19:22.068Z,4.50
2023-03-13T09:21:51.892Z,3.80
2023-03-13T09:24:21.550Z,10.70
2023-03-13T09:27:00.617Z,7.10
2023-03-13T09:29:23.050Z,5.53
2023-03-13T09:31:52.796Z,9.67
2023-03-13T09:34:24.385Z,4.85
2023-03-13T09:36:54.146Z,6.07
2023-03-13T09:39:24.209Z,9.35
2023-03-13T09:41:57.206Z,6.27
2023-03-13T09:44:38.652Z,5.42
2023-03-13T09:47:29.554Z,6.57
2023-03-13T09:50:02.450Z,6.63
2023-03-13T09:52:41.635Z,5.87
2023-03-13T09:55:17.203Z,10.10
2023-03-13T09:57:57.234Z,4.90
2023-03-13T10:00:32.250Z,8.97
2023-03-13T10:03:13.818Z,5.50
2023-03-13T10:05:52.884Z,6.63
2023-03-13T10:08:28.551Z,5.97
2023-03-13T10:11:25.650Z,6.12
2023-03-13T10:14:16.010Z,6.27
2023-03-13T10:16:57.515Z,4.30
2023-03-13T10:19:37.276Z,4.20
2023-03-13T10:22:22.564Z,4.00
2023-03-13T10:25:01.304Z,5.47
2023-03-13T10:27:31.169Z,2.73
2023-03-13T10:30:00.877Z,4.33
2023-03-13T10:32:30.655Z,3.93
2023-03-13T10:35:03.334Z,4.43
2023-03-13T10:37:36.156Z,5.97
2023-03-13T10:40:23.518Z,3.40
2023-03-13T10:42:55.325Z,3.13
2023-03-13T10:45:25.613Z,5.40
2023-03-13T10:47:57.519Z,3.58
2023-03-13T10:50:29.367Z,5.00
2023-03-13T10:52:59.457Z,4.27
2023-03-13T10:55:29.267Z,5.17
2023-03-13T10:58:02.294Z,2.87
2023-03-13T11:00:41.073Z,2.27
2023-03-13T11:03:22.412Z,3.93
2023-03-13T11:05:58.027Z,6.43
2023-03-13T11:08:30.546Z,3.50
2023-03-13T11:11:02.997Z,3.00
2023-03-13T11:13:44.125Z,2.65
2023-03-13T11:16:30.412Z,1.72
2023-03-13T11:19:26.939Z,5.07
2023-03-13T11:22:17.288Z,3.13
2023-03-13T11:25:11.854Z,3.03
2023-03-13T11:27:53.430Z,1.73
2023-03-13T11:30:42.396Z,4.90
2023-03-13T11:33:16.818Z,3.97
2023-03-13T11:36:01.815Z,4.42
2023-03-13T11:38:46.160Z,2.10
2023-03-13T11:44:17.957Z,3.37
2023-03-13T11:47:17.827Z,2.20
2023-03-13T11:49:50.613Z,4.00
2023-03-13T11:52:23.333Z,2.57
2023-03-13T11:55:04.566Z,4.73
2023-03-13T11:57:39.907Z,3.30
2023-03-13T12:00:34.188Z,4.72
2023-03-13T12:03:23.204Z,4.67
2023-03-13T12:05:59.368Z,3.03
2023-03-13T12:11:08.151Z,2.67
2023-03-13T12:13:40.668Z,4.95
2023-03-13T12:16:21.917Z,4.10
2023-03-13T12:18:54.048Z,2.65
2023-03-13T12:21:29.555Z,3.40
2023-03-13T12:24:14.345Z,4.45
2023-03-13T12:26:47.116Z,5.20
2023-03-13T12:29:26.649Z,2.05
2023-03-13T12:32:14.299Z,2.87
2023-03-13T12:34:49.725Z,4.80
2023-03-13T12:37:38.597Z,4.13
2023-03-13T12:40:36.766Z,7.37
2023-03-13T12:43:25.549Z,4.37
2023-03-13T12:46:04.240Z,4.57
2023-03-13T12:48:45.891Z,4.20
2023-03-13T12:51:34.970Z,4.47
2023-03-13T12:54:24.077Z,4.20
2023-03-13T12:57:11.866Z,2.15
2023-03-13T12:59:45.042Z,2.97
2023-03-13T13:02:24.538Z,3.70
2023-03-13T13:04:56.814Z,2.20
2023-03-13T13:07:40.303Z,3.13
2023-03-13T13:10:16.832Z,3.37
2023-03-13T13:12:50.504Z,2.77
2023-03-13T13:15:30.746Z,9.18
2023-03-13T13:18:26.076Z,6.93
2023-03-13T13:21:07.669Z,3.90
2023-03-13T13:23:44.258Z,2.77
2023-03-13T13:26:33.635Z,9.30
2023-03-13T13:29:18.325Z,6.90
2023-03-13T13:31:55.293Z,5.13
2023-03-13T13:34:36.378Z,2.67
2023-03-13T13:37:14.884Z,3.80
2023-03-13T13:39:53.498Z,2.70
2023-03-13T13:42:36.669Z,3.72
2023-03-13T13:45:20.342Z,6.83
2023-03-13T13:47:51.679Z,1.80
2023-03-13T13:50:26.465Z,3.50
2023-03-13T13:53:15.486Z,4.27
2023-03-13T13:55:46.383Z,4.53
2023-03-13T13:58:21.877Z,2.80
2023-03-13T14:01:02.727Z,2.73
2023-03-13T14:03:35.898Z,2.67
2023-03-13T14:06:25.842Z,5.93
2023-03-13T14:08:58.751Z,6.83
2023-03-13T14:11:37.313Z,5.03
2023-03-13T14:14:22.246Z,2.85
2023-03-13T14:16:58.895Z,6.23
2023-03-13T14:19:33.673Z,4.03
2023-03-13T14:22:08.899Z,2.40
2023-03-13T14:24:39.084Z,5.93
2023-03-13T14:27:17.269Z,5.47
2023-03-13T14:30:09.208Z,3.47
2023-03-13T14:32:40.409Z,10.38
2023-03-13T14:35:12.544Z,2.30
2023-03-13T14:37:47.636Z,7.80
2023-03-13T14:40:28.354Z,5.13
2023-03-13T14:43:02.535Z,5.30
2023-03-13T14:45:39.896Z,4.70
2023-03-13T14:48:35.020Z,5.90
2023-03-13T14:51:15.697Z,4.67
2023-03-13T14:53:43.994Z,5.42
2023-03-13T14:56:19.307Z,6.17
2023-03-13T14:58:49.506Z,2.22
2023-03-13T15:01:29.363Z,5.47
2023-03-13T15:04:00.646Z,7.15
2023-03-13T15:06:30.816Z,6.93
2023-03-13T15:09:22.019Z,6.83
2023-03-13T15:12:02.504Z,2.50
2023-03-13T15:14:43.762Z,7.05
2023-03-13T15:17:18.851Z,6.03
2023-03-13T15:19:54.130Z,4.97
2023-03-13T15:22:33.893Z,3.97
2023-03-13T15:25:07.496Z,3.03
2023-03-13T15:27:36.930Z,5.25
2023-03-13T15:30:08.639Z,4.30
2023-03-13T15:32:42.631Z,5.70
2023-03-13T15:35:32.737Z,4.47
2023-03-13T15:38:03.461Z,3.67
2023-03-13T15:40:33.065Z,1.77
2023-03-13T15:43:02.832Z,5.03
2023-03-13T15:45:32.772Z,6.33
2023-03-13T15:48:03.037Z,4.80
2023-03-13T15:50:32.671Z,8.53
2023-03-13T15:53:02.491Z,2.17
2023-03-13T15:55:32.541Z,3.00
2023-03-13T15:58:02.280Z,2.47
2023-03-13T16:00:31.974Z,4.00
2023-03-13T16:03:01.501Z,3.70
2023-03-13T16:05:31.295Z,10.97
2023-03-13T16:08:01.300Z,4.43
2023-03-13T16:10:33.105Z,3.50
2023-03-13T16:13:03.528Z,3.87
2023-03-13T16:15:33.045Z,8.80
2023-03-13T16:18:03.409Z,7.23
2023-03-13T16:20:35.132Z,5.33
2023-03-13T16:23:04.971Z,8.63
2023-03-13T16:25:35.163Z,5.83
2023-03-13T16:28:08.812Z,5.08
2023-03-13T16:30:40.738Z,6.97
2023-03-13T16:33:11.538Z,7.97
2023-03-13T16:35:41.478Z,7.37
2023-03-13T16:38:12.603Z,5.78
2023-03-13T16:40:42.134Z,6.90
2023-03-13T16:43:13.414Z,3.60
2023-03-13T16:45:43.911Z,7.13
2023-03-13T16:48:16.721Z,14.33
2023-03-13T16:50:46.574Z,7.13
2023-03-13T16:53:16.728Z,12.95
2023-03-13T16:55:46.742Z,7.08
2023-03-13T16:58:16.429Z,6.58
2023-03-13T17:00:59.339Z,5.43
2023-03-13T17:03:17.710Z,7.40
2023-03-13T17:05:47.811Z,11.90
2023-03-13T17:08:17.593Z,7.75
2023-03-13T17:13:18.777Z,10.80
2023-03-13T17:15:48.618Z,9.87
2023-03-13T17:18:18.468Z,12.30
2023-03-13T17:20:48.808Z,14.13
2023-03-13T17:23:18.895Z,13.43
2023-03-13T17:25:48.914Z,8.03
2023-03-13T17:28:18.415Z,10.03
2023-03-13T17:30:48.306Z,4.43
2023-03-13T17:33:18.162Z,4.83
2023-03-13T17:35:47.972Z,5.90
2023-03-13T17:38:17.859Z,7.66
2023-03-13T17:40:47.844Z,10.27
2023-03-13T17:43:17.664Z,6.90
2023-03-13T17:45:47.479Z,5.57
2023-03-13T17:48:17.525Z,7.73
2023-03-13T17:50:47.292Z,5.87
2023-03-13T17:53:17.248Z,9.43
2023-03-13T17:55:47.463Z,7.00
2023-03-13T17:58:17.235Z,6.24
2023-03-13T18:00:47.599Z,7.95
2023-03-13T18:03:17.683Z,7.67
2023-03-13T18:05:47.444Z,5.07
2023-03-13T18:08:16.963Z,8.17
2023-03-13T18:10:46.824Z,12.20
2023-03-13T18:13:16.573Z,8.07
2023-03-13T18:15:46.342Z,9.53
2023-03-13T18:18:18.861Z,8.13
2023-03-13T18:20:48.650Z,4.33
2023-03-13T18:23:18.797Z,8.28
2023-03-13T18:25:48.630Z,10.07
2023-03-13T18:28:18.244Z,10.83
2023-03-13T18:30:48.545Z,8.77
2023-03-13T18:33:18.362Z,7.93
2023-03-13T18:35:48.165Z,7.73
2023-03-13T18:38:19.120Z,8.58
2023-03-13T18:40:48.894Z,8.17
2023-03-13T18:43:18.649Z,8.67
2023-03-13T18:45:48.420Z,7.53
2023-03-13T18:48:18.171Z,8.70
2023-03-13T18:50:48.281Z,8.63
2023-03-13T18:53:18.089Z,10.47
2023-03-13T18:55:47.907Z,14.23
2023-03-13T18:58:17.717Z,14.92
2023-03-13T19:00:47.987Z,12.07
2023-03-13T19:03:19.437Z,11.73
2023-03-13T19:05:49.196Z,13.27
2023-03-13T19:08:19.171Z,13.58
2023-03-13T19:10:49.024Z,18.93
2023-03-13T19:13:18.999Z,15.43
2023-03-13T19:15:48.788Z,24.23
2023-03-13T19:18:18.788Z,24.80
2023-03-13T19:20:49.829Z,21.83
2023-03-13T19:23:19.938Z,24.65
2023-03-13T19:25:49.692Z,15.07
2023-03-13T19:28:19.570Z,23.07
2023-03-13T19:30:49.312Z,18.80
2023-03-13T19:33:19.846Z,21.43
2023-03-13T19:35:49.619Z,16.93
2023-03-13T19:38:19.130Z,18.74
2023-03-13T19:40:48.910Z,22.27
2023-03-13T19:43:18.485Z,17.70
2023-03-13T19:45:48.656Z,20.50
2023-03-13T19:48:18.217Z,21.23
2023-03-13T19:50:48.304Z,26.70
2023-03-13T19:53:18.153Z,21.43
2023-03-13T19:55:47.977Z,24.70
2023-03-13T19:58:17.831Z,30.40
2023-03-13T20:00:47.578Z,23.43
2023-03-13T20:03:17.353Z,27.00
2023-03-13T20:05:47.103Z,24.33
2023-03-13T20:08:16.897Z,24.20
2023-03-13T20:10:46.995Z,30.25
2023-03-13T20:13:16.776Z,22.63
2023-03-13T20:15:46.656Z,21.50
2023-03-13T20:18:16.147Z,22.47
2023-03-13T20:20:46.194Z,18.35
2023-03-13T20:23:15.948Z,28.07
2023-03-13T20:25:46.029Z,22.32
2023-03-13T20:28:16.147Z,16.27
2023-03-13T20:30:47.615Z,25.07
2023-03-13T20:33:17.779Z,17.30
2023-03-13T20:35:47.336Z,23.05
2023-03-13T20:38:17.105Z,23.40
2023-03-13T20:40:49.920Z,25.90
2023-03-13T20:43:20.484Z,23.12
2023-03-13T20:45:50.351Z,23.07
2023-03-13T20:48:20.633Z,21.87
2023-03-13T20:50:55.828Z,18.53
2023-03-13T20:53:26.717Z,25.17
2023-03-13T20:55:56.500Z,27.73
2023-03-13T20:58:26.334Z,29.72
2023-03-13T21:01:01.529Z,25.97
2023-03-13T21:03:35.861Z,22.63
2023-03-13T21:06:16.396Z,27.58
2023-03-13T21:08:46.996Z,22.40
2023-03-13T21:11:19.640Z,19.13
2023-03-13T21:13:50.298Z,24.18
2023-03-13T21:16:20.240Z,22.32
2023-03-13T21:18:50.068Z,18.13
2023-03-13T21:21:22.293Z,21.70
2023-03-13T21:23:53.093Z,15.73
2023-03-13T21:26:22.935Z,25.20
2023-03-13T21:28:53.017Z,17.07
2023-03-13T21:31:23.012Z,19.03
2023-03-13T21:33:52.847Z,20.97
2023-03-13T21:36:23.379Z,18.27
2023-03-13T21:38:53.270Z,18.80
2023-03-13T21:41:23.832Z,17.07
2023-03-13T21:43:55.311Z,14.37
2023-03-13T21:46:25.224Z,13.40
2023-03-13T21:48:55.197Z,11.73
2023-03-13T21:51:24.957Z,11.33
2023-03-13T21:53:54.679Z,14.85
2023-03-13T21:56:24.134Z,9.43
2023-03-13T21:58:54.162Z,11.67
2023-03-13T22:01:24.308Z,6.12
2023-03-13T22:03:54.197Z,13.80
2023-03-13T22:06:24.208Z,8.48
2023-03-13T22:08:54.053Z,9.47
2023-03-13T22:11:23.809Z,12.37
2023-03-13T22:13:53.718Z,10.10
2023-03-13T22:16:25.397Z,10.05
2023-03-13T22:18:55.866Z,13.40
2023-03-13T22:21:25.924Z,10.40
2023-03-13T22:23:55.820Z,14.53
2023-03-13T22:26:25.362Z,9.65
2023-03-13T22:28:55.266Z,10.37
2023-03-13T22:31:25.046Z,8.90
2023-03-13T22:33:54.732Z,9.77
2023-03-13T22:36:24.289Z,12.00
2023-03-13T22:38:54.116Z,11.43
2023-03-13T22:41:23.909Z,14.73
2023-03-13T22:43:53.879Z,5.93
2023-03-13T22:46:23.761Z,9.03
2023-03-13T22:48:53.563Z,10.23
2023-03-13T22:51:23.344Z,12.13
2023-03-13T22:53:53.091Z,11.33
2023-03-13T22:56:24.546Z,7.87
2023-03-13T22:58:54.643Z,5.73
2023-03-13T23:01:24.696Z,12.53
2023-03-13T23:03:54.290Z,13.60
2023-03-13T23:06:25.598Z,12.35
2023-03-13T23:08:55.526Z,12.87
2023-03-13T23:11:25.328Z,9.70
2023-03-13T23:13:55.274Z,10.47
2023-03-13T23:16:24.830Z,6.87
2023-03-13T23:18:54.598Z,13.10
2023-03-13T23:21:24.068Z,9.70
2023-03-13T23:23:55.177Z,15.33
2023-03-13T23:26:24.702Z,7.73
2023-03-13T23:28:54.496Z,10.73
2023-03-13T23:31:24.405Z,7.00
2023-03-13T23:33:54.801Z,5.60
2023-03-13T23:36:24.574Z,9.20
2023-03-13T23:38:56.873Z,9.35
2023-03-13T23:41:26.718Z,7.87
2023-03-13T23:43:56.526Z,8.03
2023-03-13T23:46:26.950Z,7.55
2023-03-13T23:48:58.317Z,10.23
2023-03-13T23:51:28.141Z,4.57
2023-03-13T23:53:57.910Z,9.63
2023-03-13T23:56:29.553Z,6.40
2023-03-13T23:58:59.713Z,11.12
